createdAt,value
2023-02-09T00:01:37.725Z,19.80
2023-02-09T00:04:04.807Z,19.80
2023-02-09T00:06:31.587Z,19.80
2023-02-09T00:08:59.225Z,19.80
2023-02-09T00:11:47.023Z,19.70
2023-02-09T00:14:15.469Z,19.80
2023-02-09T00:16:42.486Z,19.70
2023-02-09T00:19:09.558Z,19.70
2023-02-09T00:21:36.417Z,19.70
2023-02-09T00:24:03.282Z,19.70
2023-02-09T00:26:30.024Z,19.70
2023-02-09T00:28:56.897Z,19.70
2023-02-09T00:31:23.732Z,19.70
2023-02-09T00:33:50.552Z,19.60
2023-02-09T00:36:17.751Z,19.60
2023-02-09T00:38:44.804Z,19.70
2023-02-09T00:41:13.405Z,19.60
2023-02-09T00:43:40.708Z,19.60
2023-02-09T00:46:07.767Z,19.60
2023-02-09T00:48:35.603Z,19.60
2023-02-09T00:51:02.367Z,19.60
2023-02-09T00:53:29.104Z,19.60
2023-02-09T00:55:55.809Z,19.60
2023-02-09T00:58:22.523Z,19.60
2023-02-09T01:00:50.129Z,19.50
2023-02-09T01:03:17.017Z,19.50
2023-02-09T01:05:43.816Z,19.50
2023-02-09T01:08:11.651Z,19.50
2023-02-09T01:10:39.530Z,19.50
2023-02-09T01:13:06.413Z,19.50
2023-02-09T01:15:33.202Z,19.50
2023-02-09T01:18:00.447Z,19.50
2023-02-09T01:20:27.748Z,19.40
2023-02-09T01:22:54.467Z,19.40
2023-02-09T01:25:21.188Z,19.40
2023-02-09T01:27:48.258Z,19.40
2023-02-09T01:30:15.577Z,19.40
2023-02-09T01:32:42.454Z,19.40
2023-02-09T01:35:09.375Z,19.40
2023-02-09T01:37:37.295Z,19.40
2023-02-09T01:40:04.902Z,19.30
2023-02-09T01:42:31.722Z,19.30
2023-02-09T01:45:03.988Z,19.30
2023-02-09T01:47:30.890Z,19.30
2023-02-09T01:49:58.937Z,19.30
2023-02-09T01:52:27.888Z,19.20
2023-02-09T01:54:58.307Z,19.20
2023-02-09T01:57:29.591Z,19.20
2023-02-09T02:00:04.208Z,19.20
2023-02-09T02:02:45.316Z,19.20
2023-02-09T02:05:12.302Z,19.20
2023-02-09T02:07:46.943Z,19.10
2023-02-09T02:10:13.679Z,19.20
2023-02-09T02:12:41.645Z,19.10
2023-02-09T02:15:11.534Z,19.10
2023-02-09T02:18:03.793Z,19.10
2023-02-09T02:21:01.896Z,19.10
2023-02-09T02:23:48.397Z,19.10
2023-02-09T02:26:39.864Z,19.10
2023-02-09T02:29:27.106Z,19.00
2023-02-09T02:32:24.588Z,19.00
2023-02-09T02:35:04.288Z,19.00
2023-02-09T02:37:37.527Z,19.00
2023-02-09T02:40:16.890Z,18.90
2023-02-09T02:42:51.606Z,18.90
2023-02-09T02:45:23.200Z,18.90
2023-02-09T02:48:15.658Z,18.80
2023-02-09T02:50:52.949Z,18.80
2023-02-09T02:53:20.236Z,18.80
2023-02-09T02:55:47.638Z,18.80
2023-02-09T02:58:15.467Z,18.80
2023-02-09T03:00:45.798Z,18.80
2023-02-09T03:03:19.806Z,18.80
2023-02-09T03:05:47.551Z,18.80
2023-02-09T03:08:14.284Z,18.80
2023-02-09T03:10:42.132Z,18.80
2023-02-09T03:13:38.568Z,18.80
2023-02-09T03:16:24.429Z,18.80
2023-02-09T03:19:15.760Z,18.80
2023-02-09T03:21:59.103Z,18.80
2023-02-09T03:24:36.946Z,18.70
2023-02-09T03:27:25.464Z,18.70
2023-02-09T03:29:55.488Z,18.70
2023-02-09T03:32:23.888Z,18.70
2023-02-09T03:34:52.649Z,18.60
2023-02-09T03:37:19.396Z,18.60
2023-02-09T03:39:46.210Z,18.70
2023-02-09T03:42:12.964Z,18.60
2023-02-09T03:44:39.647Z,18.60
2023-02-09T03:47:08.284Z,18.60
2023-02-09T03:49:41.045Z,18.60
2023-02-09T03:52:12.741Z,18.60
2023-02-09T03:54:39.826Z,18.60
2023-02-09T03:57:07.088Z,18.60
2023-02-09T03:59:37.569Z,18.60
2023-02-09T04:02:06.505Z,18.60
2023-02-09T04:04:33.278Z,18.60
2023-02-09T04:07:00.001Z,18.50
2023-02-09T04:09:27.448Z,18.50
2023-02-09T04:11:54.420Z,18.50
2023-02-09T04:14:21.147Z,18.50
2023-02-09T04:16:47.998Z,18.50
2023-02-09T04:19:14.737Z,18.50
2023-02-09T04:21:41.552Z,18.50
2023-02-09T04:24:08.576Z,18.50
2023-02-09T04:26:35.447Z,18.50
2023-02-09T04:29:02.147Z,18.50
2023-02-09T04:31:29.030Z,18.40
2023-02-09T04:33:55.953Z,18.40
2023-02-09T04:36:23.420Z,18.40
2023-02-09T04:38:50.551Z,18.40
2023-02-09T04:41:17.309Z,18.40
2023-02-09T04:43:45.346Z,18.40
2023-02-09T04:46:13.511Z,18.40
2023-02-09T04:48:40.388Z,18.30
2023-02-09T04:51:07.084Z,18.30
2023-02-09T04:53:33.808Z,18.30
2023-02-09T04:56:00.561Z,18.30
2023-02-09T04:58:46.066Z,18.30
2023-02-09T05:01:17.738Z,18.30
2023-02-09T05:03:44.597Z,18.30
2023-02-09T05:06:11.372Z,18.30
2023-02-09T05:08:38.109Z,18.20
2023-02-09T05:11:05.059Z,18.20
2023-02-09T05:13:31.910Z,18.20
2023-02-09T05:15:58.629Z,18.20
2023-02-09T05:18:25.601Z,18.20
2023-02-09T05:20:52.793Z,18.20
2023-02-09T05:23:19.576Z,18.10
2023-02-09T05:25:47.342Z,18.20
2023-02-09T05:28:14.244Z,18.20
2023-02-09T05:30:41.038Z,18.10
2023-02-09T05:33:07.887Z,18.10
2023-02-09T05:35:34.588Z,18.10
2023-02-09T05:38:01.286Z,18.10
2023-02-09T05:40:28.133Z,18.10
2023-02-09T05:42:55.076Z,18.10
2023-02-09T05:45:23.274Z,18.10
2023-02-09T05:47:50.046Z,18.10
2023-02-09T05:50:16.838Z,18.00
2023-02-09T05:52:43.594Z,18.10
2023-02-09T05:55:10.346Z,18.00
2023-02-09T05:57:37.138Z,18.00
2023-02-09T06:00:05.516Z,18.00
2023-02-09T06:02:38.738Z,18.00
2023-02-09T06:05:05.820Z,18.00
2023-02-09T06:07:32.506Z,18.00
2023-02-09T06:09:59.200Z,18.00
2023-02-09T06:12:26.019Z,18.00
2023-02-09T06:14:52.744Z,17.90
2023-02-09T06:17:19.457Z,17.90
2023-02-09T06:19:46.182Z,17.90
2023-02-09T06:22:12.881Z,17.90
2023-02-09T06:24:39.581Z,17.90
2023-02-09T06:27:07.467Z,17.90
2023-02-09T06:29:34.203Z,17.90
2023-02-09T06:32:00.988Z,17.90
2023-02-09T06:34:27.828Z,17.90
2023-02-09T06:36:54.541Z,17.90
2023-02-09T06:39:21.279Z,17.80
2023-02-09T06:41:48.029Z,17.90
2023-02-09T06:44:14.728Z,17.80
2023-02-09T06:46:41.617Z,17.80
2023-02-09T06:49:08.351Z,17.80
2023-02-09T06:51:35.055Z,17.80
2023-02-09T06:54:01.913Z,17.80
2023-02-09T06:56:28.647Z,17.80
2023-02-09T06:58:55.585Z,17.80
2023-02-09T07:01:22.523Z,17.70
2023-02-09T07:03:49.398Z,17.70
2023-02-09T07:06:17.904Z,17.80
2023-02-09T07:08:45.576Z,17.80
2023-02-09T07:11:14.406Z,17.70
2023-02-09T07:13:41.396Z,17.70
2023-02-09T07:16:10.490Z,17.70
2023-02-09T07:18:37.576Z,17.70
2023-02-09T07:21:11.001Z,17.70
2023-02-09T07:23:38.394Z,17.70
2023-02-09T07:26:06.696Z,17.60
2023-02-09T07:28:34.969Z,17.50
2023-02-09T07:31:04.716Z,17.40
2023-02-09T07:33:32.142Z,17.30
2023-02-09T07:35:59.105Z,17.10
2023-02-09T07:38:25.936Z,17.00
2023-02-09T07:40:53.475Z,16.90
2023-02-09T07:43:20.301Z,16.70
2023-02-09T07:45:47.291Z,16.70
2023-02-09T07:48:14.177Z,16.60
2023-02-09T07:50:41.157Z,16.60
2023-02-09T07:53:07.944Z,16.60
2023-02-09T07:55:34.657Z,16.70
2023-02-09T07:58:01.541Z,16.80
2023-02-09T08:00:28.248Z,16.90
2023-02-09T08:02:55.106Z,16.90
2023-02-09T08:05:31.151Z,17.10
2023-02-09T08:07:58.453Z,17.20
2023-02-09T08:10:26.290Z,17.30
2023-02-09T08:12:59.868Z,17.40
2023-02-09T08:15:42.175Z,17.50
2023-02-09T08:18:13.975Z,17.60
2023-02-09T08:20:41.227Z,17.70
2023-02-09T08:23:13.239Z,17.80
2023-02-09T08:25:40.147Z,17.90
2023-02-09T08:28:07.253Z,17.90
2023-02-09T08:30:34.713Z,18.10
2023-02-09T08:33:01.575Z,18.10
2023-02-09T08:35:30.580Z,18.30
2023-02-09T08:38:02.097Z,18.30
2023-02-09T08:40:29.630Z,18.40
2023-02-09T08:42:56.453Z,18.40
2023-02-09T08:45:23.685Z,18.50
2023-02-09T08:47:50.464Z,18.50
2023-02-09T08:50:17.229Z,18.60
2023-02-09T08:52:44.206Z,18.70
2023-02-09T08:55:11.040Z,18.80
2023-02-09T08:57:44.058Z,18.90
2023-02-09T09:00:12.809Z,18.90
2023-02-09T09:02:39.543Z,19.00
2023-02-09T09:05:06.689Z,19.10
2023-02-09T09:07:33.479Z,19.10
2023-02-09T09:10:00.187Z,19.10
2023-02-09T09:12:26.926Z,19.20
2023-02-09T09:14:53.834Z,19.30
2023-02-09T09:17:20.779Z,19.40
2023-02-09T09:19:47.633Z,19.40
2023-02-09T09:22:14.439Z,19.50
2023-02-09T09:24:41.147Z,19.50
2023-02-09T09:27:09.043Z,19.60
2023-02-09T09:29:36.828Z,19.60
2023-02-09T09:32:03.651Z,19.60
2023-02-09T09:34:30.410Z,19.70
2023-02-09T09:36:57.131Z,19.70
2023-02-09T09:39:25.579Z,19.80
2023-02-09T09:41:58.014Z,19.80
2023-02-09T09:44:33.543Z,19.90
2023-02-09T09:47:04.196Z,19.90
2023-02-09T09:49:31.988Z,20.00
2023-02-09T09:52:09.603Z,19.90
2023-02-09T09:54:37.121Z,19.90
2023-02-09T09:57:04.244Z,19.90
2023-02-09T09:59:35.095Z,19.90
2023-02-09T10:02:16.403Z,19.90
2023-02-09T10:04:43.238Z,19.90
2023-02-09T10:07:19.460Z,19.90
2023-02-09T10:09:56.633Z,19.90
2023-02-09T10:12:37.701Z,20.00
2023-02-09T10:15:32.351Z,20.00
2023-02-09T10:18:00.383Z,20.00
2023-02-09T10:20:43.041Z,20.00
2023-02-09T10:23:20.633Z,20.10
2023-02-09T10:25:55.098Z,20.10
2023-02-09T10:28:31.301Z,20.10
2023-02-09T10:31:01.045Z,20.20
2023-02-09T10:33:29.802Z,20.20
2023-02-09T10:35:58.917Z,20.30
2023-02-09T10:38:32.707Z,20.30
2023-02-09T10:41:00.765Z,20.30
2023-02-09T10:43:32.756Z,20.40
2023-02-09T10:46:08.584Z,20.40
2023-02-09T10:48:43.834Z,20.40
2023-02-09T10:51:29.192Z,20.50
2023-02-09T10:54:00.511Z,20.50
2023-02-09T10:56:55.944Z,20.50
2023-02-09T10:59:24.747Z,20.60
2023-02-09T11:01:56.726Z,20.60
2023-02-09T11:04:26.030Z,20.60
2023-02-09T11:06:55.366Z,20.60
2023-02-09T11:09:24.555Z,20.60
2023-02-09T11:11:52.020Z,20.60
2023-02-09T11:14:19.987Z,20.50
2023-02-09T11:17:04.953Z,20.60
2023-02-09T11:19:57.064Z,20.60
2023-02-09T11:22:54.427Z,20.70
2023-02-09T11:25:40.281Z,20.70
2023-02-09T11:28:21.894Z,20.80
2023-02-09T11:31:00.893Z,20.80
2023-02-09T11:33:46.352Z,20.80
2023-02-09T11:36:45.447Z,20.80
2023-02-09T11:39:14.352Z,20.80
2023-02-09T11:42:03.705Z,20.80
2023-02-09T11:44:56.445Z,20.80
2023-02-09T11:47:30.996Z,20.80
2023-02-09T11:49:59.222Z,20.80
2023-02-09T11:52:34.307Z,20.80
2023-02-09T11:55:06.324Z,20.90
2023-02-09T11:57:48.813Z,20.90
2023-02-09T12:00:19.824Z,21.00
2023-02-09T12:03:07.481Z,20.90
2023-02-09T12:05:34.410Z,21.00
2023-02-09T12:08:19.546Z,21.00
2023-02-09T12:10:56.692Z,21.00
2023-02-09T12:13:59.084Z,21.00
2023-02-09T12:16:38.723Z,21.00
2023-02-09T12:19:06.582Z,21.00
2023-02-09T12:21:38.423Z,21.00
2023-02-09T12:24:37.810Z,21.00
2023-02-09T12:27:04.516Z,21.00
2023-02-09T12:29:40.210Z,21.10
2023-02-09T12:32:07.895Z,21.10
2023-02-09T12:34:41.771Z,21.10
2023-02-09T12:37:14.582Z,21.10
2023-02-09T12:40:16.986Z,21.20
2023-02-09T12:43:04.677Z,21.20
2023-02-09T12:45:35.644Z,21.20
2023-02-09T12:48:12.948Z,21.20
2023-02-09T12:50:42.732Z,21.20
2023-02-09T12:53:40.872Z,21.20
2023-02-09T12:56:08.973Z,21.20
2023-02-09T12:58:55.464Z,21.10
2023-02-09T13:01:22.311Z,21.10
2023-02-09T13:03:56.516Z,21.10
2023-02-09T13:06:44.890Z,21.10
2023-02-09T13:09:26.108Z,21.10
2023-02-09T13:12:15.935Z,21.10
2023-02-09T13:14:46.447Z,21.10
2023-02-09T13:17:35.264Z,21.10
2023-02-09T13:20:30.474Z,21.10
2023-02-09T13:23:05.236Z,21.00
2023-02-09T13:25:38.063Z,21.00
2023-02-09T13:28:19.105Z,21.00
2023-02-09T13:30:46.769Z,21.00
2023-02-09T13:33:43.954Z,20.90
2023-02-09T13:36:33.024Z,21.00
2023-02-09T13:38:59.670Z,20.90
2023-02-09T13:41:39.443Z,20.80
2023-02-09T13:44:32.075Z,20.80
2023-02-09T13:47:00.628Z,20.80
2023-02-09T13:49:28.999Z,20.80
2023-02-09T13:52:12.230Z,20.80
2023-02-09T13:54:39.989Z,20.80
2023-02-09T13:57:12.518Z,20.80
2023-02-09T13:59:42.846Z,20.70
2023-02-09T14:02:22.395Z,20.80
2023-02-09T14:04:51.962Z,20.80
2023-02-09T14:07:19.353Z,20.70
2023-02-09T14:10:01.660Z,20.70
2023-02-09T14:12:55.549Z,20.70
2023-02-09T14:15:46.757Z,20.70
2023-02-09T14:18:45.807Z,20.60
2023-02-09T14:21:16.371Z,20.60
2023-02-09T14:23:56.942Z,20.60
2023-02-09T14:26:46.127Z,20.60
2023-02-09T14:29:20.598Z,20.60
2023-02-09T14:31:49.633Z,20.50
2023-02-09T14:34:28.535Z,20.50
2023-02-09T14:37:16.704Z,20.50
2023-02-09T14:40:06.139Z,20.50
2023-02-09T14:42:34.444Z,20.50
2023-02-09T14:45:30.121Z,20.40
2023-02-09T14:47:56.832Z,20.40
2023-02-09T14:50:24.006Z,20.40
2023-02-09T14:52:54.548Z,20.40
2023-02-09T14:55:27.345Z,20.40
2023-02-09T14:57:54.996Z,20.40
2023-02-09T15:00:24.286Z,20.50
2023-02-09T15:02:51.597Z,20.40
2023-02-09T15:05:19.638Z,20.40
2023-02-09T15:07:52.695Z,20.30
2023-02-09T15:10:29.428Z,20.30
2023-02-09T15:12:56.986Z,20.30
2023-02-09T15:15:25.015Z,20.20
2023-02-09T15:17:54.145Z,20.30
2023-02-09T15:20:24.447Z,20.30
2023-02-09T15:22:55.064Z,20.30
2023-02-09T15:25:23.024Z,20.30
2023-02-09T15:27:57.028Z,20.20
2023-02-09T15:30:35.544Z,20.30
2023-02-09T15:33:02.275Z,20.30
2023-02-09T15:35:29.755Z,20.30
2023-02-09T15:37:59.598Z,20.40
2023-02-09T15:40:52.036Z,20.40
2023-02-09T15:43:39.827Z,20.40
2023-02-09T15:46:26.481Z,20.50
2023-02-09T15:48:53.256Z,20.50
2023-02-09T15:51:20.433Z,20.50
2023-02-09T15:53:47.383Z,20.60
2023-02-09T15:56:14.564Z,20.60
2023-02-09T15:58:44.781Z,20.60
2023-02-09T16:01:14.111Z,20.70
2023-02-09T16:03:40.787Z,20.70
2023-02-09T16:06:24.664Z,20.80
2023-02-09T16:08:53.609Z,20.80
2023-02-09T16:11:32.825Z,20.80
2023-02-09T16:13:59.872Z,20.90
2023-02-09T16:16:28.273Z,20.90
2023-02-09T16:18:55.380Z,21.00
2023-02-09T16:21:32.333Z,21.00
2023-02-09T16:24:01.353Z,21.10
2023-02-09T16:26:29.286Z,21.10
2023-02-09T16:28:56.749Z,21.20
2023-02-09T16:31:25.319Z,21.20
2023-02-09T16:33:52.230Z,21.20
2023-02-09T16:36:24.695Z,21.20
2023-02-09T16:38:51.537Z,21.30
2023-02-09T16:41:38.968Z,21.30
2023-02-09T16:44:23.547Z,21.30
2023-02-09T16:46:53.769Z,21.40
2023-02-09T16:50:00.048Z,21.40
2023-02-09T16:52:27.742Z,21.40
2023-02-09T16:55:00.892Z,21.30
2023-02-09T16:57:28.872Z,21.40
2023-02-09T16:59:55.916Z,21.40
2023-02-09T17:02:33.001Z,21.40
2023-02-09T17:05:01.719Z,21.50
2023-02-09T17:07:39.840Z,21.40
2023-02-09T17:10:19.563Z,21.50
2023-02-09T17:12:47.159Z,21.50
2023-02-09T17:15:28.476Z,21.50
2023-02-09T17:18:01.829Z,21.50
2023-02-09T17:20:51.287Z,21.50
2023-02-09T17:23:21.350Z,21.60
2023-02-09T17:25:50.845Z,21.50
2023-02-09T17:28:19.150Z,21.40
2023-02-09T17:30:47.713Z,21.50
2023-02-09T17:33:28.331Z,21.50
2023-02-09T17:38:44.777Z,21.50
2023-02-09T17:41:15.664Z,21.50
2023-02-09T17:43:42.890Z,21.50
2023-02-09T17:46:16.333Z,21.50
2023-02-09T17:48:43.226Z,21.50
2023-02-09T17:51:22.249Z,21.50
2023-02-09T17:53:49.156Z,21.50
2023-02-09T17:56:16.817Z,21.50
2023-02-09T17:58:44.549Z,21.50
2023-02-09T18:01:27.310Z,21.50
2023-02-09T18:03:55.860Z,21.50
2023-02-09T18:06:28.060Z,21.50
2023-02-09T18:08:54.788Z,21.50
2023-02-09T18:11:44.150Z,21.50
2023-02-09T18:14:15.562Z,21.50
2023-02-09T18:16:43.022Z,21.50
2023-02-09T18:19:10.993Z,21.50
2023-02-09T18:21:38.470Z,21.50
2023-02-09T18:24:06.141Z,21.50
2023-02-09T18:26:33.754Z,21.40
2023-02-09T18:29:00.506Z,21.50
2023-02-09T18:31:27.310Z,21.50
2023-02-09T18:33:54.203Z,21.40
2023-02-09T18:36:20.987Z,21.50
2023-02-09T18:38:49.080Z,21.50
2023-02-09T18:41:15.804Z,21.40
2023-02-09T18:43:42.508Z,21.40
2023-02-09T18:46:13.116Z,21.40
2023-02-09T18:48:40.011Z,21.40
2023-02-09T18:51:10.310Z,21.40
2023-02-09T18:53:37.972Z,21.40
2023-02-09T18:56:05.808Z,21.40
2023-02-09T18:58:32.626Z,21.40
2023-02-09T19:00:59.676Z,21.40
2023-02-09T19:03:27.219Z,21.40
2023-02-09T19:05:53.910Z,21.40
2023-02-09T19:08:20.660Z,21.30
2023-02-09T19:10:47.484Z,21.40
2023-02-09T19:13:14.212Z,21.40
2023-02-09T19:15:40.976Z,21.40
2023-02-09T19:18:07.743Z,21.30
2023-02-09T19:20:34.623Z,21.30
2023-02-09T19:23:02.473Z,21.30
2023-02-09T19:25:30.303Z,21.30
2023-02-09T19:27:57.222Z,21.30
2023-02-09T19:30:26.344Z,21.30
2023-02-09T19:32:55.056Z,21.30
2023-02-09T19:35:22.912Z,21.30
2023-02-09T19:37:57.021Z,21.30
2023-02-09T19:40:33.562Z,21.30
2023-02-09T19:43:00.342Z,21.20
2023-02-09T19:45:27.046Z,21.20
2023-02-09T19:47:53.836Z,21.20
2023-02-09T19:50:20.578Z,21.20
2023-02-09T19:52:49.042Z,21.20
2023-02-09T19:55:15.796Z,21.20
2023-02-09T19:57:42.690Z,21.20
2023-02-09T20:00:14.615Z,21.10
2023-02-09T20:02:41.652Z,21.10
2023-02-09T20:05:09.290Z,21.10
2023-02-09T20:07:36.299Z,21.10
2023-02-09T20:10:03.625Z,21.10
2023-02-09T20:12:31.311Z,21.10
2023-02-09T20:14:58.104Z,21.10
2023-02-09T20:17:24.860Z,21.10
2023-02-09T20:19:52.392Z,21.10
2023-02-09T20:22:19.380Z,21.10
2023-02-09T20:24:46.099Z,21.10
2023-02-09T20:27:13.073Z,21.10
2023-02-09T20:29:39.804Z,21.10
2023-02-09T20:32:06.675Z,21.00
2023-02-09T20:34:34.201Z,21.00
2023-02-09T20:37:01.891Z,21.00
2023-02-09T20:39:28.681Z,21.00
2023-02-09T20:42:17.454Z,21.00
2023-02-09T20:45:02.951Z,21.00
2023-02-09T20:47:30.163Z,21.00
2023-02-09T20:49:59.968Z,21.00
2023-02-09T20:52:30.380Z,21.00
2023-02-09T20:54:57.203Z,21.00
2023-02-09T20:57:29.311Z,21.00
2023-02-09T21:00:00.141Z,21.00
2023-02-09T21:02:27.047Z,21.00
2023-02-09T21:04:55.092Z,20.90
2023-02-09T21:07:21.872Z,20.90
2023-02-09T21:09:48.627Z,20.90
2023-02-09T21:12:15.390Z,20.90
2023-02-09T21:14:45.052Z,20.90
2023-02-09T21:17:12.590Z,20.90
2023-02-09T21:19:39.904Z,20.90
2023-02-09T21:22:06.782Z,20.90
2023-02-09T21:24:33.895Z,20.80
2023-02-09T21:27:00.790Z,20.80
2023-02-09T21:29:31.263Z,20.80
2023-02-09T21:32:03.626Z,20.80
2023-02-09T21:34:30.868Z,20.80
2023-02-09T21:36:57.662Z,20.70
2023-02-09T21:39:24.434Z,20.80
2023-02-09T21:42:09.865Z,20.70
2023-02-09T21:44:37.408Z,20.70
2023-02-09T21:47:04.327Z,20.70
2023-02-09T21:49:31.877Z,20.60
2023-02-09T21:51:59.426Z,20.60
2023-02-09T21:54:28.766Z,20.60
2023-02-09T21:56:55.733Z,20.60
2023-02-09T21:59:22.457Z,20.60
2023-02-09T22:01:49.155Z,20.60
2023-02-09T22:04:15.979Z,20.60
2023-02-09T22:06:42.776Z,20.60
2023-02-09T22:09:09.538Z,20.60
2023-02-09T22:11:36.276Z,20.60
2023-02-09T22:14:03.198Z,20.60
2023-02-09T22:16:30.055Z,20.60
2023-02-09T22:18:56.838Z,20.60
2023-02-09T22:21:23.652Z,20.50
2023-02-09T22:23:52.767Z,20.50
2023-02-09T22:26:19.580Z,20.50
2023-02-09T22:28:47.127Z,20.50
2023-02-09T22:31:16.547Z,20.50
2023-02-09T22:33:43.528Z,20.50
2023-02-09T22:36:17.964Z,20.50
2023-02-09T22:38:45.248Z,20.50
2023-02-09T22:41:22.386Z,20.50
2023-02-09T22:43:53.863Z,20.50
2023-02-09T22:46:22.983Z,20.50
2023-02-09T22:48:54.080Z,20.40
2023-02-09T22:51:21.626Z,20.50
2023-02-09T22:53:48.324Z,20.40
2023-02-09T22:56:15.470Z,20.40
2023-02-09T22:58:43.091Z,20.40
2023-02-09T23:01:11.069Z,20.40
2023-02-09T23:03:38.680Z,20.40
2023-02-09T23:06:07.616Z,20.40
2023-02-09T23:08:34.732Z,20.40
2023-02-09T23:11:08.930Z,20.40
2023-02-09T23:13:36.453Z,20.40
2023-02-09T23:16:23.501Z,20.40
2023-02-09T23:18:57.114Z,20.30
2023-02-09T23:21:26.041Z,20.40
2023-02-09T23:23:53.505Z,20.30
2023-02-09T23:26:20.656Z,20.30
2023-02-09T23:28:48.193Z,20.30
2023-02-09T23:31:17.506Z,20.30
2023-02-09T23:33:44.745Z,20.30
2023-02-09T23:36:16.417Z,20.30
2023-02-09T23:38:44.605Z,20.20
2023-02-09T23:41:14.020Z,20.30
2023-02-09T23:43:41.138Z,20.20
2023-02-09T23:46:11.064Z,20.30
2023-02-09T23:48:37.787Z,20.20
2023-02-09T23:51:06.928Z,20.20
2023-02-09T23:53:34.176Z,20.20
2023-02-09T23:56:03.946Z,20.20
2023-02-09T23:58:38.065Z,20.20
